Hiawassee, Florida
Current Conditions -  °F | °C
As of 3:53 PM on Monday 24 Nov 2014 (Local Time) from KORL Reporting Station
Broken Clouds Broken Clouds  
Wind Chill: 30°   Ceiling: 5500
Heat Index: 33°   Visibility: 10mi
Dew Point: 21°   Wind: 15mph
Humidity: 59%   Direction: 230°SW
Pressure: 29.92"   Gusts: 18mph
Location:  28.5867°N, 81.4891°W
Report Text: KORL 242053Z 23013G16KT 10SM SCT045 BKN055 30/21 A2992 RMK AO2 SLP135 T03000211 55005
Loading
Personal Weather Stations






























Interactive Weather Map New forecast layout! Learn more

10-Day Weather Forecast

Advertisements
Track Severe Weather on mobile